Time;durP1;ratioP1;P1;durP2;ratioP2;P2;SDS_P1;SDS_P2;PMS_P1;PMS_P2;Temp;Humidity;BMP_temperature;BMP_pressure;BME280_temperature;BME280_humidity;BME280_pressure;Samples;Min_cycle;Max_cycle;Signal;HPM_P1;HPM_P2
2021/09/08 00:01:56;;;;;;;;;;;17.20;99.90;;;;;;5096455;28;20007;-79
2021/09/08 00:04:21;;;;;;;;;;;17.20;99.90;;;;;;5094585;28;19919;-80
2021/09/08 00:06:47;;;;;;;;;;;17.20;99.90;;;;;;5096041;28;19988;-81
2021/09/08 00:09:12;;;;;;;;;;;17.20;99.90;;;;;;5095591;28;19919;-81
2021/09/08 00:11:38;;;;;;;;;;;17.20;99.90;;;;;;5096628;28;20025;-81
2021/09/08 00:14:03;;;;;;;;;;;17.20;99.90;;;;;;5093102;28;19919;-82
2021/09/08 00:16:29;;;;;;;;;;;17.10;99.90;;;;;;5097346;28;19977;-81
2021/09/08 00:18:55;;;;;;;;;;;17.10;99.90;;;;;;5094623;28;19912;-81
2021/09/08 00:21:20;;;;;;;;;;;17.10;99.90;;;;;;5087641;28;20338;-81
2021/09/08 00:23:46;;;;;;;;;;;17.00;99.90;;;;;;5093161;28;20295;-81
2021/09/08 00:26:11;;;;;;;;;;;17.00;99.90;;;;;;5094964;28;19956;-81
2021/09/08 00:28:37;;;;;;;;;;;16.90;99.90;;;;;;5081448;28;19920;-81
2021/09/08 00:31:02;;;;;;;;;;;16.80;99.90;;;;;;5093789;28;20282;-81
2021/09/08 00:33:28;;;;;;;;;;;16.70;99.90;;;;;;5093292;28;19916;-81
2021/09/08 00:35:54;;;;;;;;;;;16.70;99.90;;;;;;5077514;28;19916;-80
2021/09/08 00:38:19;;;;;;;;;;;16.70;99.90;;;;;;5069618;28;19997;-80
2021/09/08 00:40:45;;;;;;;;;;;16.70;99.90;;;;;;5080266;28;19912;-81
2021/09/08 00:43:10;;;;;;;;;;;16.60;99.90;;;;;;5094364;28;20311;-81
2021/09/08 00:45:36;;;;;;;;;;;16.60;99.90;;;;;;5095216;28;19965;-80
2021/09/08 00:48:02;;;;;;;;;;;16.50;99.90;;;;;;5076333;28;19908;-80
2021/09/08 00:50:27;;;;;;;;;;;16.40;99.90;;;;;;5093972;28;19974;-79
2021/09/08 00:52:53;;;;;;;;;;;16.40;99.90;;;;;;5095113;28;20360;-81
2021/09/08 00:55:19;;;;;;;;;;;16.40;99.90;;;;;;5091894;28;20253;-81
2021/09/08 00:57:45;;;;;;;;;;;16.40;99.90;;;;;;5095054;28;19916;-80
2021/09/08 01:00:11;;;;;;;;;;;16.40;99.90;;;;;;5094274;28;19973;-80
2021/09/08 01:02:40;;;;;;;;;;;16.40;99.90;;;;;;5095201;28;20026;-81
2021/09/08 01:05:06;;;;;;;;;;;16.50;99.90;;;;;;5077304;28;19912;-80
2021/09/08 01:07:32;;;;;;;;;;;16.50;99.90;;;;;;5081398;28;20318;-79
2021/09/08 01:09:57;;;;;;;;;;;16.50;99.90;;;;;;5076783;28;19912;-80
2021/09/08 01:12:23;;;;;;;;;;;16.50;99.90;;;;;;5090464;28;19935;-80
2021/09/08 01:14:48;;;;;;;;;;;16.50;99.90;;;;;;5076142;28;19968;-80
2021/09/08 01:17:16;;;;;;;;;;;16.60;99.90;;;;;;5068942;28;19912;-79
2021/09/08 01:19:41;;;;;;;;;;;16.60;99.90;;;;;;5075457;28;20281;-79
2021/09/08 01:22:07;;;;;;;;;;;16.60;99.90;;;;;;5088301;28;20049;-80
2021/09/08 01:24:32;;;;;;;;;;;16.60;99.90;;;;;;5093361;28;20249;-80
2021/09/08 01:26:59;;;;;;;;;;;16.60;99.90;;;;;;5094406;28;19969;-79
2021/09/08 01:29:25;;;;;;;;;;;16.50;99.90;;;;;;5071622;28;19912;-79
2021/09/08 01:31:54;;;;;;;;;;;16.50;99.90;;;;;;5094363;28;19923;-79
2021/09/08 01:34:20;;;;;;;;;;;16.50;99.90;;;;;;5093923;28;19923;-75
2021/09/08 01:36:46;;;;;;;;;;;16.50;99.90;;;;;;5076640;28;19920;-81
2021/09/08 01:39:16;;;;;;;;;;;16.50;99.90;;;;;;5076298;28;20299;-79
2021/09/08 01:41:42;;;;;;;;;;;16.50;99.90;;;;;;5094553;28;19931;-80
2021/09/08 01:44:08;;;;;;;;;;;16.50;99.90;;;;;;5093783;28;19926;-80
2021/09/08 01:46:35;;;;;;;;;;;16.40;99.90;;;;;;5071136;28;19916;-80
2021/09/08 01:49:00;;;;;;;;;;;16.50;99.90;;;;;;5073515;28;19916;-79
2021/09/08 01:51:26;;;;;;;;;;;16.40;99.90;;;;;;5093279;28;19916;-77
2021/09/08 01:53:52;;;;;;;;;;;16.40;99.90;;;;;;5076655;28;19969;-79
2021/09/08 01:56:17;;;;;;;;;;;16.40;99.90;;;;;;5096458;28;19916;-79
2021/09/08 01:58:43;;;;;;;;;;;16.40;99.90;;;;;;5093251;28;19916;-79
2021/09/08 02:01:08;;;;;;;;;;;16.40;99.90;;;;;;5093681;28;19954;-80
2021/09/08 02:03:34;;;;;;;;;;;16.40;99.90;;;;;;5093764;28;20006;-80
2021/09/08 02:05:59;;;;;;;;;;;16.40;99.90;;;;;;5094420;28;19912;-77
2021/09/08 02:08:25;;;;;;;;;;;16.40;99.90;;;;;;5094404;28;20362;-79
2021/09/08 02:10:51;;;;;;;;;;;16.40;99.90;;;;;;5083725;28;19908;-80
2021/09/08 02:13:17;;;;;;;;;;;16.40;99.90;;;;;;5093759;28;19939;-79
2021/09/08 02:15:42;;;;;;;;;;;16.40;99.90;;;;;;5089041;28;19924;-78
2021/09/08 02:18:08;;;;;;;;;;;16.40;99.90;;;;;;5087823;28;19941;-80
2021/09/08 02:20:33;;;;;;;;;;;16.40;99.90;;;;;;5094498;28;20264;-79
2021/09/08 02:22:59;;;;;;;;;;;16.40;99.90;;;;;;5075398;28;19916;-79
2021/09/08 02:25:24;;;;;;;;;;;16.40;99.90;;;;;;5075992;28;19918;-79
2021/09/08 02:27:50;;;;;;;;;;;16.40;99.90;;;;;;5094372;28;19939;-76
2021/09/08 02:30:16;;;;;;;;;;;16.40;99.90;;;;;;5092614;28;19919;-80
2021/09/08 02:32:41;;;;;;;;;;;16.30;99.90;;;;;;5086466;28;19919;-79
2021/09/08 02:35:09;;;;;;;;;;;16.30;99.90;;;;;;5074681;28;19920;-79
2021/09/08 02:37:35;;;;;;;;;;;16.30;99.90;;;;;;5094208;28;19916;-79
2021/09/08 02:40:00;;;;;;;;;;;16.20;99.90;;;;;;5096969;28;20274;-79
2021/09/08 02:42:26;;;;;;;;;;;16.20;99.90;;;;;;5097995;28;19978;-79
2021/09/08 02:44:52;;;;;;;;;;;16.10;99.90;;;;;;5097728;28;19920;-78
2021/09/08 02:47:17;;;;;;;;;;;16.10;99.90;;;;;;5096786;28;20415;-79
2021/09/08 02:49:43;;;;;;;;;;;16.10;99.90;;;;;;5094618;28;19958;-78
2021/09/08 02:52:08;;;;;;;;;;;16.10;99.90;;;;;;5078983;28;19961;-79
2021/09/08 02:54:34;;;;;;;;;;;16.10;99.90;;;;;;5096913;28;20287;-79
2021/09/08 02:57:00;;;;;;;;;;;16.10;99.90;;;;;;5079592;28;20330;-76
2021/09/08 02:59:25;;;;;;;;;;;16.00;99.90;;;;;;5076188;28;19923;-79
2021/09/08 03:01:51;;;;;;;;;;;16.00;99.90;;;;;;5097148;28;20195;-78
2021/09/08 03:04:16;;;;;;;;;;;16.00;99.90;;;;;;5078628;28;19955;-79
2021/09/08 03:06:42;;;;;;;;;;;16.00;99.90;;;;;;5078791;28;19916;-79
2021/09/08 03:09:08;;;;;;;;;;;15.90;99.90;;;;;;5086502;28;20264;-80
2021/09/08 03:11:33;;;;;;;;;;;16.00;99.90;;;;;;5090902;28;20330;-79
2021/09/08 03:13:59;;;;;;;;;;;15.90;99.90;;;;;;5096131;28;19924;-79
2021/09/08 03:16:24;;;;;;;;;;;15.90;99.90;;;;;;5097497;28;20299;-79
2021/09/08 03:18:50;;;;;;;;;;;15.80;99.90;;;;;;5097050;28;19919;-78
2021/09/08 03:21:15;;;;;;;;;;;15.80;99.90;;;;;;5078559;28;20005;-79
2021/09/08 03:23:41;;;;;;;;;;;15.70;99.90;;;;;;5094068;28;19919;-78
2021/09/08 03:26:07;;;;;;;;;;;15.80;99.90;;;;;;5079507;28;19918;-79
2021/09/08 03:28:32;;;;;;;;;;;15.70;99.90;;;;;;5089354;28;19924;-79
2021/09/08 03:30:58;;;;;;;;;;;15.70;99.90;;;;;;5088346;28;19912;-79
2021/09/08 03:33:23;;;;;;;;;;;15.70;99.90;;;;;;5097021;28;19969;-78
2021/09/08 03:35:49;;;;;;;;;;;15.70;99.90;;;;;;5096806;28;19924;-79
2021/09/08 03:38:14;;;;;;;;;;;15.60;99.90;;;;;;5079104;28;20266;-79
2021/09/08 03:40:40;;;;;;;;;;;15.60;99.90;;;;;;5078154;28;20215;-78
2021/09/08 03:43:06;;;;;;;;;;;15.60;99.90;;;;;;5094506;28;19965;-78
2021/09/08 03:45:31;;;;;;;;;;;15.60;99.90;;;;;;5084553;28;19912;-78
2021/09/08 03:47:57;;;;;;;;;;;15.60;99.90;;;;;;5083687;28;19912;-78
2021/09/08 03:50:23;;;;;;;;;;;15.60;99.90;;;;;;5077774;28;19912;-78
2021/09/08 03:52:50;;;;;;;;;;;15.60;99.90;;;;;;5095176;28;19915;-78
2021/09/08 03:55:16;;;;;;;;;;;15.60;99.90;;;;;;5074809;28;19920;-79
2021/09/08 03:57:41;;;;;;;;;;;15.50;99.90;;;;;;5084863;28;19916;-78
2021/09/08 04:00:08;;;;;;;;;;;15.50;99.90;;;;;;5095511;28;19990;-78
2021/09/08 04:02:33;;;;;;;;;;;15.40;99.90;;;;;;5095137;28;19923;-78
2021/09/08 04:04:59;;;;;;;;;;;15.40;99.90;;;;;;5093010;28;19920;-79
2021/09/08 04:07:26;;;;;;;;;;;15.30;99.90;;;;;;5096250;28;20247;-79
2021/09/08 04:09:51;;;;;;;;;;;15.30;99.90;;;;;;5077124;28;20445;-78
2021/09/08 04:12:17;;;;;;;;;;;15.30;99.90;;;;;;5077475;28;19966;-78
2021/09/08 04:14:42;;;;;;;;;;;15.20;99.90;;;;;;5095553;28;19912;-79
2021/09/08 04:17:08;;;;;;;;;;;15.20;99.90;;;;;;5094852;28;19926;-80
2021/09/08 04:19:34;;;;;;;;;;;15.20;99.90;;;;;;5085903;28;19916;-78
2021/09/08 04:21:59;;;;;;;;;;;15.10;99.90;;;;;;5095900;28;20036;-79
2021/09/08 04:24:25;;;;;;;;;;;15.20;99.90;;;;;;5077482;28;19923;-79
2021/09/08 04:26:50;;;;;;;;;;;15.10;99.90;;;;;;5095379;28;20295;-79
2021/09/08 04:29:16;;;;;;;;;;;15.10;99.90;;;;;;5096204;28;19912;-78
2021/09/08 04:31:42;;;;;;;;;;;15.20;99.90;;;;;;5094644;28;19943;-79
2021/09/08 04:34:08;;;;;;;;;;;15.20;99.90;;;;;;5091737;28;20077;-79
2021/09/08 04:36:34;;;;;;;;;;;15.20;99.90;;;;;;5090933;28;19920;-79
2021/09/08 04:38:59;;;;;;;;;;;15.20;99.90;;;;;;5092549;28;19920;-79
2021/09/08 04:41:26;;;;;;;;;;;15.30;99.90;;;;;;5076359;28;19917;-77
2021/09/08 04:43:51;;;;;;;;;;;15.30;99.90;;;;;;5086734;28;19920;-78
2021/09/08 04:46:17;;;;;;;;;;;15.30;99.90;;;;;;5092520;28;19927;-79
2021/09/08 04:48:42;;;;;;;;;;;15.30;99.90;;;;;;5077022;28;20000;-78
2021/09/08 04:51:08;;;;;;;;;;;15.30;99.90;;;;;;5075375;28;19916;-78
2021/09/08 04:53:33;;;;;;;;;;;15.30;99.90;;;;;;5091055;28;19990;-79
2021/09/08 04:55:59;;;;;;;;;;;15.30;99.90;;;;;;5093764;28;19916;-79
2021/09/08 04:58:25;;;;;;;;;;;15.30;99.90;;;;;;5090811;28;20302;-79
2021/09/08 05:00:50;;;;;;;;;;;15.20;99.90;;;;;;5059009;28;19925;-75
2021/09/08 05:03:16;;;;;;;;;;;15.20;99.90;;;;;;5050675;28;19970;-79
2021/09/08 05:05:41;;;;;;;;;;;15.10;99.90;;;;;;5036299;28;19924;-77
2021/09/08 05:08:07;;;;;;;;;;;15.20;99.90;;;;;;5039699;28;20330;-78
2021/09/08 05:10:33;;;;;;;;;;;15.20;99.90;;;;;;5053340;28;20012;-79
2021/09/08 05:12:58;;;;;;;;;;;15.10;99.90;;;;;;5051235;28;19971;-76
2021/09/08 05:15:24;;;;;;;;;;;15.10;99.90;;;;;;5048571;28;20262;-79
2021/09/08 05:17:49;;;;;;;;;;;15.20;99.90;;;;;;5043630;28;19916;-78
2021/09/08 05:20:15;;;;;;;;;;;15.20;99.90;;;;;;5050936;28;19909;-78
2021/09/08 05:22:40;;;;;;;;;;;15.20;99.90;;;;;;5053139;28;19913;-77
2021/09/08 05:25:07;;;;;;;;;;;15.20;99.90;;;;;;5052430;28;19917;-79
2021/09/08 05:27:33;;;;;;;;;;;15.10;99.90;;;;;;5048305;28;19967;-79
2021/09/08 05:29:58;;;;;;;;;;;15.10;99.90;;;;;;5049251;28;19917;-80
2021/09/08 05:32:24;;;;;;;;;;;15.00;99.90;;;;;;5053112;28;19916;-78
2021/09/08 05:34:49;;;;;;;;;;;15.10;99.90;;;;;;5053139;28;20295;-77
2021/09/08 05:37:15;;;;;;;;;;;15.10;99.90;;;;;;5053166;28;19955;-79
2021/09/08 05:39:41;;;;;;;;;;;15.10;99.90;;;;;;5048872;28;19917;-78
2021/09/08 05:42:06;;;;;;;;;;;15.20;99.90;;;;;;5052577;28;20015;-78
2021/09/08 05:44:32;;;;;;;;;;;15.20;99.90;;;;;;5050773;28;20011;-77
2021/09/08 05:46:57;;;;;;;;;;;15.20;99.90;;;;;;5044671;28;19917;-78
2021/09/08 05:49:23;;;;;;;;;;;15.30;99.90;;;;;;5049306;28;19912;-78
2021/09/08 05:51:49;;;;;;;;;;;15.30;99.90;;;;;;5052503;28;19917;-79
2021/09/08 05:54:14;;;;;;;;;;;15.40;99.90;;;;;;5052468;28;19931;-80
2021/09/08 05:56:40;;;;;;;;;;;15.40;99.90;;;;;;5051442;28;19948;-75
2021/09/08 05:59:05;;;;;;;;;;;15.40;99.90;;;;;;5051919;28;19959;-79
2021/09/08 06:01:31;;;;;;;;;;;15.40;99.90;;;;;;5085260;28;19920;-78
2021/09/08 06:03:58;;;;;;;;;;;15.40;99.90;;;;;;5068083;28;20188;-79
2021/09/08 06:06:24;;;;;;;;;;;15.40;99.90;;;;;;5085115;28;19951;-79
2021/09/08 06:08:49;;;;;;;;;;;15.50;99.90;;;;;;5070823;28;19970;-78
2021/09/08 06:11:15;;;;;;;;;;;15.50;99.90;;;;;;5085795;28;19961;-79
2021/09/08 06:13:40;;;;;;;;;;;15.60;99.90;;;;;;5074181;28;19916;-79
2021/09/08 06:16:06;;;;;;;;;;;15.60;99.90;;;;;;5088043;28;19916;-79
2021/09/08 06:18:32;;;;;;;;;;;15.60;99.90;;;;;;5092113;28;20610;-78
2021/09/08 06:20:58;;;;;;;;;;;15.70;99.90;;;;;;5091519;28;19913;-79
2021/09/08 06:23:23;;;;;;;;;;;15.70;99.90;;;;;;5093754;28;20677;-79
2021/09/08 06:25:49;;;;;;;;;;;15.80;99.90;;;;;;5094946;28;19916;-79
2021/09/08 06:28:15;;;;;;;;;;;15.90;99.90;;;;;;5093338;28;19916;-79
2021/09/08 06:30:40;;;;;;;;;;;15.90;99.90;;;;;;5076118;28;20007;-78
2021/09/08 06:33:06;;;;;;;;;;;16.00;99.90;;;;;;5096960;28;19913;-79
2021/09/08 06:35:31;;;;;;;;;;;16.00;99.90;;;;;;5094477;28;19978;-78
2021/09/08 06:37:57;;;;;;;;;;;16.10;99.90;;;;;;5092959;28;19919;-79
2021/09/08 06:40:22;;;;;;;;;;;16.20;99.90;;;;;;5098250;28;19916;-78
2021/09/08 06:42:48;;;;;;;;;;;16.30;99.90;;;;;;5097468;28;19926;-77
2021/09/08 06:45:15;;;;;;;;;;;16.30;99.90;;;;;;5078610;28;20245;-79
2021/09/08 06:47:41;;;;;;;;;;;16.40;99.90;;;;;;5096996;28;19953;-78
2021/09/08 06:50:08;;;;;;;;;;;16.50;99.90;;;;;;5095559;28;20257;-79
2021/09/08 06:52:33;;;;;;;;;;;16.60;99.90;;;;;;5075170;28;20318;-78
2021/09/08 06:54:59;;;;;;;;;;;16.70;99.90;;;;;;5086377;28;19921;-78
2021/09/08 06:57:25;;;;;;;;;;;16.80;99.90;;;;;;5067721;28;20027;-77
2021/09/08 06:59:51;;;;;;;;;;;16.90;99.90;;;;;;5082866;28;19986;-78
2021/09/08 07:02:16;;;;;;;;;;;17.00;99.90;;;;;;5069279;28;19927;-79
2021/09/08 07:04:42;;;;;;;;;;;17.20;99.90;;;;;;5087878;28;19916;-79
2021/09/08 07:07:08;;;;;;;;;;;17.30;99.90;;;;;;5084966;28;20028;-78
2021/09/08 07:09:33;;;;;;;;;;;17.60;99.90;;;;;;5085066;28;19923;-79
2021/09/08 07:11:59;;;;;;;;;;;17.80;99.90;;;;;;5066960;28;19934;-78
2021/09/08 07:14:24;;;;;;;;;;;18.10;99.90;;;;;;5083823;28;19924;-79
2021/09/08 07:16:51;;;;;;;;;;;18.30;99.90;;;;;;5085918;28;19920;-77
2021/09/08 07:19:16;;;;;;;;;;;18.60;99.90;;;;;;5075860;28;19912;-79
2021/09/08 07:21:42;;;;;;;;;;;18.80;99.90;;;;;;5096829;28;20006;-78
2021/09/08 07:24:08;;;;;;;;;;;19.10;99.90;;;;;;5096565;28;19916;-79
2021/09/08 07:26:33;;;;;;;;;;;19.40;99.90;;;;;;5095978;28;20346;-79
2021/09/08 07:29:08;;;;;;;;;;;19.80;99.90;;;;;;5075718;28;20219;-80
2021/09/08 07:31:33;;;;;;;;;;;20.20;99.90;;;;;;5075646;28;19919;-79
2021/09/08 07:33:59;;;;;;;;;;;20.40;99.90;;;;;;5095150;28;19916;-78
2021/09/08 07:36:25;;;;;;;;;;;20.40;99.90;;;;;;5093947;28;19920;-79
2021/09/08 07:38:52;;;;;;;;;;;20.30;99.90;;;;;;5083923;28;19923;-78
2021/09/08 07:41:19;;;;;;;;;;;20.30;99.90;;;;;;5081275;28;20000;-79
2021/09/08 07:43:44;;;;;;;;;;;20.40;99.90;;;;;;5086834;28;19924;-79
2021/09/08 07:46:11;;;;;;;;;;;20.60;99.90;;;;;;5065001;28;19916;-76
2021/09/08 07:48:37;;;;;;;;;;;20.70;99.90;;;;;;5074292;28;19916;-78
2021/09/08 07:51:02;;;;;;;;;;;20.80;99.90;;;;;;5090181;28;19972;-78
2021/09/08 07:53:28;;;;;;;;;;;20.90;99.90;;;;;;5091516;28;19972;-78
2021/09/08 07:55:53;;;;;;;;;;;21.00;99.90;;;;;;5093736;28;20014;-79
2021/09/08 07:58:19;;;;;;;;;;;21.20;99.90;;;;;;5092629;28;20341;-79
2021/09/08 08:00:44;;;;;;;;;;;21.20;99.90;;;;;;5095695;28;19920;-80
2021/09/08 08:03:10;;;;;;;;;;;21.40;99.90;;;;;;5075866;28;19920;-75
2021/09/08 08:05:36;;;;;;;;;;;21.50;99.90;;;;;;5085708;28;20208;-79
2021/09/08 08:08:01;;;;;;;;;;;21.80;99.90;;;;;;5091454;28;19974;-78
2021/09/08 08:10:27;;;;;;;;;;;21.90;99.90;;;;;;5090370;28;19999;-79
2021/09/08 08:12:53;;;;;;;;;;;22.10;99.90;;;;;;5094909;28;19991;-78
2021/09/08 08:15:19;;;;;;;;;;;22.10;99.90;;;;;;5076341;28;19920;-78
2021/09/08 08:17:44;;;;;;;;;;;22.30;99.90;;;;;;5075856;28;20208;-78
2021/09/08 08:20:10;;;;;;;;;;;22.40;99.90;;;;;;5090657;28;19922;-75
2021/09/08 08:22:37;;;;;;;;;;;22.50;99.90;;;;;;5092814;28;19923;-79
2021/09/08 08:25:03;;;;;;;;;;;22.60;99.90;;;;;;5095501;28;19912;-80
2021/09/08 08:27:29;;;;;;;;;;;22.80;99.90;;;;;;5077840;28;19919;-81
2021/09/08 08:29:54;;;;;;;;;;;22.80;99.90;;;;;;5095046;28;19966;-78
2021/09/08 08:32:20;;;;;;;;;;;23.00;99.90;;;;;;5077909;28;20310;-76
2021/09/08 08:34:45;;;;;;;;;;;23.20;99.90;;;;;;5095006;28;20219;-79
2021/09/08 08:37:11;;;;;;;;;;;23.30;99.90;;;;;;5074547;28;19954;-79
2021/09/08 08:39:38;;;;;;;;;;;23.30;99.90;;;;;;5090677;28;19916;-79
2021/09/08 08:42:06;;;;;;;;;;;23.40;99.90;;;;;;5074559;28;19916;-77
2021/09/08 08:44:32;;;;;;;;;;;23.50;99.90;;;;;;5088524;28;19912;-78
2021/09/08 08:46:57;;;;;;;;;;;23.50;99.90;;;;;;5091219;28;19923;-78
2021/09/08 08:49:24;;;;;;;;;;;23.50;99.90;;;;;;5086037;28;19916;-78
2021/09/08 08:51:50;;;;;;;;;;;23.50;99.90;;;;;;5075489;28;19927;-78
2021/09/08 08:54:16;;;;;;;;;;;23.60;99.90;;;;;;5093916;28;19912;-79
2021/09/08 08:56:41;;;;;;;;;;;23.70;99.90;;;;;;5094211;28;20006;-79
2021/09/08 08:59:07;;;;;;;;;;;23.80;99.90;;;;;;5095123;28;20007;-79
2021/09/08 09:01:33;;;;;;;;;;;23.80;99.90;;;;;;5090901;28;19946;-79
2021/09/08 09:04:00;;;;;;;;;;;23.80;99.90;;;;;;5094094;28;19920;-80
2021/09/08 09:06:25;;;;;;;;;;;23.80;99.90;;;;;;5074256;28;20204;-79
2021/09/08 09:08:58;;;;;;;;;;;23.90;99.90;;;;;;5092654;28;19958;-79
2021/09/08 09:11:24;;;;;;;;;;;23.90;99.90;;;;;;5094561;28;19930;-80
2021/09/08 09:13:50;;;;;;;;;;;23.90;99.90;;;;;;5072690;28;19999;-78
2021/09/08 09:16:15;;;;;;;;;;;24.10;99.90;;;;;;5091732;28;20249;-80
2021/09/08 09:18:45;;;;;;;;;;;24.10;99.90;;;;;;5092683;28;19920;-79
2021/09/08 09:21:12;;;;;;;;;;;24.10;99.90;;;;;;5103371;28;19916;-75
2021/09/08 09:23:44;;;;;;;;;;;24.10;99.90;;;;;;5092721;28;19912;-79
2021/09/08 09:26:10;;;;;;;;;;;24.10;99.90;;;;;;5073776;28;20014;-79
2021/09/08 09:28:42;;;;;;;;;;;24.30;99.90;;;;;;5090369;28;19999;-79
2021/09/08 09:31:20;;;;;;;;;;;24.40;99.90;;;;;;5084888;28;19920;-80
2021/09/08 09:33:48;;;;;;;;;;;24.30;99.90;;;;;;5094184;28;19962;-79
2021/09/08 09:36:18;;;;;;;;;;;24.30;99.90;;;;;;5081553;28;19989;-79
2021/09/08 09:38:44;;;;;;;;;;;24.30;99.90;;;;;;5069577;28;19958;-79
2021/09/08 09:41:12;;;;;;;;;;;24.50;99.90;;;;;;5094339;28;19912;-80
2021/09/08 09:43:41;;;;;;;;;;;24.60;99.90;;;;;;5086680;28;19916;-76
2021/09/08 09:46:07;;;;;;;;;;;24.80;99.90;;;;;;5088544;28;19979;-80
2021/09/08 09:48:33;;;;;;;;;;;25.00;99.90;;;;;;5092221;28;19908;-80
2021/09/08 09:51:03;;;;;;;;;;;25.00;99.90;;;;;;5090209;28;19912;-80
2021/09/08 09:53:32;;;;;;;;;;;25.00;99.90;;;;;;5088344;28;20385;-79
2021/09/08 09:55:58;;;;;;;;;;;24.90;99.90;;;;;;5088602;28;19919;-79
2021/09/08 09:58:24;;;;;;;;;;;25.00;99.90;;;;;;5088889;28;19913;-79
2021/09/08 10:00:50;;;;;;;;;;;25.00;99.90;;;;;;5084844;28;20491;-80
2021/09/08 10:03:16;;;;;;;;;;;25.10;99.90;;;;;;5078294;28;19915;-80
2021/09/08 10:05:42;;;;;;;;;;;25.10;99.90;;;;;;5076823;28;19908;-79
2021/09/08 10:08:08;;;;;;;;;;;25.10;99.90;;;;;;5094133;28;19923;-80
2021/09/08 10:10:35;;;;;;;;;;;25.10;99.90;;;;;;5075144;28;20011;-80
2021/09/08 10:13:04;;;;;;;;;;;25.00;99.90;;;;;;5085479;28;19927;-80
2021/09/08 10:15:30;;;;;;;;;;;25.00;99.90;;;;;;5060162;28;19927;-80
2021/09/08 10:18:04;;;;;;;;;;;25.00;99.90;;;;;;5075689;28;19916;-78
2021/09/08 10:20:30;;;;;;;;;;;24.90;99.90;;;;;;5093695;28;19987;-76
2021/09/08 10:22:56;;;;;;;;;;;24.80;99.90;;;;;;5076732;28;20003;-79
2021/09/08 10:25:22;;;;;;;;;;;24.80;99.90;;;;;;5074386;28;19978;-80
2021/09/08 10:27:52;;;;;;;;;;;24.90;99.90;;;;;;5068875;28;19999;-80
2021/09/08 10:30:18;;;;;;;;;;;25.00;99.90;;;;;;5094677;28;19952;-80
2021/09/08 10:32:44;;;;;;;;;;;25.00;99.90;;;;;;5075539;28;20310;-80
2021/09/08 10:35:12;;;;;;;;;;;25.00;99.90;;;;;;5076071;28;19916;-80
2021/09/08 10:37:38;;;;;;;;;;;25.00;99.90;;;;;;5094297;28;20339;-80
2021/09/08 10:40:05;;;;;;;;;;;25.10;99.90;;;;;;5088995;28;19912;-81
2021/09/08 10:43:03;;;;;;;;;;;25.10;99.90;;;;;;5082180;28;19958;-81
2021/09/08 10:45:30;;;;;;;;;;;25.00;99.90;;;;;;5019344;28;19992;-79
2021/09/08 10:47:57;;;;;;;;;;;25.20;99.90;;;;;;5017846;28;19909;-81
2021/09/08 10:50:34;;;;;;;;;;;25.40;99.90;;;;;;5022026;28;20076;-81
2021/09/08 10:53:04;;;;;;;;;;;25.50;99.90;;;;;;5030237;28;20028;-76
2021/09/08 10:55:42;;;;;;;;;;;25.40;99.90;;;;;;5014707;28;20072;-81
2021/09/08 10:58:08;;;;;;;;;;;25.50;99.90;;;;;;5030698;28;20554;-80
2021/09/08 11:00:36;;;;;;;;;;;25.50;99.90;;;;;;5024873;28;19960;-81
2021/09/08 11:03:02;;;;;;;;;;;25.70;99.90;;;;;;5015367;28;19913;-79
2021/09/08 11:05:28;;;;;;;;;;;25.70;99.90;;;;;;5034599;28;19931;-79
2021/09/08 11:07:53;;;;;;;;;;;25.70;99.90;;;;;;5021343;28;20368;-81
2021/09/08 11:10:25;;;;;;;;;;;25.70;99.90;;;;;;5017492;28;19987;-77
2021/09/08 11:12:53;;;;;;;;;;;25.70;99.90;;;;;;5035151;28;20104;-76
2021/09/08 11:15:29;;;;;;;;;;;25.70;99.90;;;;;;5031411;28;20251;-76
2021/09/08 11:17:55;;;;;;;;;;;25.70;99.90;;;;;;5031325;28;20268;-78
2021/09/08 11:20:20;;;;;;;;;;;25.70;99.90;;;;;;5043790;28;19952;-77
2021/09/08 11:23:03;;;;;;;;;;;25.70;99.90;;;;;;5093294;28;19949;-77
2021/09/08 11:25:30;;;;;;;;;;;25.80;99.90;;;;;;5075828;28;19920;-77
2021/09/08 11:27:56;;;;;;;;;;;25.90;99.90;;;;;;5078766;28;19909;-76
2021/09/08 11:30:21;;;;;;;;;;;25.90;99.90;;;;;;5078395;28;19912;-78
2021/09/08 11:32:55;;;;;;;;;;;25.80;99.90;;;;;;5096693;28;20211;-76
2021/09/08 11:35:36;;;;;;;;;;;25.80;99.90;;;;;;5078146;28;19920;-76
2021/09/08 11:38:07;;;;;;;;;;;25.90;99.90;;;;;;5090243;28;19913;-76
2021/09/08 11:40:33;;;;;;;;;;;26.00;99.90;;;;;;5096492;28;19912;-76
2021/09/08 11:42:58;;;;;;;;;;;26.00;99.90;;;;;;5065987;28;20013;-77
2021/09/08 11:45:24;;;;;;;;;;;26.10;99.90;;;;;;5096258;28;19916;-79
2021/09/08 11:47:50;;;;;;;;;;;26.10;99.90;;;;;;5093288;28;19908;-77
2021/09/08 11:50:15;;;;;;;;;;;26.10;99.90;;;;;;5078700;28;20207;-77
2021/09/08 11:52:41;;;;;;;;;;;26.10;99.90;;;;;;5095814;28;20045;-77
2021/09/08 11:55:07;;;;;;;;;;;26.20;99.90;;;;;;5078179;28;20222;-76
2021/09/08 11:57:34;;;;;;;;;;;26.20;99.90;;;;;;5095882;28;20210;-76
2021/09/08 12:00:00;;;;;;;;;;;26.30;99.90;;;;;;5095509;28;20253;-77
2021/09/08 12:02:26;;;;;;;;;;;26.30;99.90;;;;;;5085665;28;19909;-78
2021/09/08 12:04:51;;;;;;;;;;;26.20;99.90;;;;;;5074112;28;19963;-76
2021/09/08 12:07:17;;;;;;;;;;;26.20;99.90;;;;;;5070074;28;19912;-75
2021/09/08 12:09:43;;;;;;;;;;;26.20;99.90;;;;;;5089654;28;20388;-76
2021/09/08 12:12:10;;;;;;;;;;;26.20;99.90;;;;;;5064424;28;20269;-77
2021/09/08 12:14:35;;;;;;;;;;;26.30;99.90;;;;;;5095849;28;20011;-78
2021/09/08 12:17:13;;;;;;;;;;;26.20;99.90;;;;;;5095022;28;20010;-76
2021/09/08 12:19:38;;;;;;;;;;;26.40;99.90;;;;;;5089464;28;20214;-76
2021/09/08 12:22:19;;;;;;;;;;;26.40;99.90;;;;;;5068303;28;19908;-76
2021/09/08 12:24:49;;;;;;;;;;;26.50;99.90;;;;;;5069719;28;19913;-76
2021/09/08 12:27:27;;;;;;;;;;;26.50;99.90;;;;;;5089446;28;19912;-76
2021/09/08 12:29:53;;;;;;;;;;;26.50;99.90;;;;;;5094466;28;19911;-76
2021/09/08 12:32:19;;;;;;;;;;;26.50;99.90;;;;;;5086657;28;19965;-77
2021/09/08 12:34:49;;;;;;;;;;;26.40;99.90;;;;;;5094918;28;19920;-76
2021/09/08 12:37:15;;;;;;;;;;;26.40;99.90;;;;;;5090020;28;19913;-76
2021/09/08 12:39:45;;;;;;;;;;;26.40;99.90;;;;;;5090828;28;19935;-76
2021/09/08 12:42:21;;;;;;;;;;;26.40;99.90;;;;;;5089934;28;20299;-77
2021/09/08 12:44:47;;;;;;;;;;;26.50;99.90;;;;;;5089273;28;19908;-80
2021/09/08 12:47:14;;;;;;;;;;;26.50;99.90;;;;;;5087639;28;19993;-77
2021/09/08 12:49:40;;;;;;;;;;;26.50;99.90;;;;;;5075907;28;20240;-77
2021/09/08 12:52:07;;;;;;;;;;;26.60;99.90;;;;;;5094442;28;19912;-76
2021/09/08 12:54:33;;;;;;;;;;;26.60;99.90;;;;;;5076661;28;19923;-77
2021/09/08 12:56:59;;;;;;;;;;;26.60;99.90;;;;;;5094777;28;19916;-78
2021/09/08 12:59:27;;;;;;;;;;;26.60;99.80;;;;;;5076730;28;20001;-79
2021/09/08 13:01:54;;;;;;;;;;;26.50;99.90;;;;;;5075524;28;19919;-76
2021/09/08 13:04:19;;;;;;;;;;;26.50;99.90;;;;;;5069278;28;19915;-77
2021/09/08 13:06:45;;;;;;;;;;;26.50;99.90;;;;;;5074072;28;19909;-77
2021/09/08 13:09:11;;;;;;;;;;;26.60;99.90;;;;;;5083963;28;19915;-78
2021/09/08 13:11:37;;;;;;;;;;;26.60;99.90;;;;;;5092382;28;19908;-78
2021/09/08 13:14:06;;;;;;;;;;;26.60;99.90;;;;;;5057602;28;19915;-77
2021/09/08 13:16:35;;;;;;;;;;;26.60;99.90;;;;;;5089156;28;20015;-78
2021/09/08 13:19:01;;;;;;;;;;;26.50;99.90;;;;;;5095796;28;19966;-77
2021/09/08 13:21:27;;;;;;;;;;;26.60;99.90;;;;;;5094202;28;19912;-79
2021/09/08 13:23:53;;;;;;;;;;;26.60;99.90;;;;;;5095318;28;20326;-77
2021/09/08 13:26:18;;;;;;;;;;;26.60;99.60;;;;;;5093972;28;19934;-78
2021/09/08 13:28:44;;;;;;;;;;;26.60;99.60;;;;;;5077214;28;19920;-77
2021/09/08 13:31:13;;;;;;;;;;;26.60;99.70;;;;;;5075870;28;19919;-77
2021/09/08 13:33:38;;;;;;;;;;;26.70;99.90;;;;;;5075783;28;19912;-77
2021/09/08 13:36:04;;;;;;;;;;;26.70;99.20;;;;;;5076342;28;20311;-77
2021/09/08 13:38:30;;;;;;;;;;;26.70;98.70;;;;;;5093447;28;19923;-76
2021/09/08 13:40:55;;;;;;;;;;;26.80;99.00;;;;;;5094663;28;19908;-77
2021/09/08 13:43:21;;;;;;;;;;;26.90;99.30;;;;;;5076718;28;20290;-77
2021/09/08 13:45:46;;;;;;;;;;;26.90;99.90;;;;;;5095079;28;19915;-77
2021/09/08 13:48:12;;;;;;;;;;;26.90;99.90;;;;;;5071963;28;19919;-76
2021/09/08 13:50:37;;;;;;;;;;;26.80;99.50;;;;;;5076692;28;19951;-78
2021/09/08 13:53:03;;;;;;;;;;;26.90;99.90;;;;;;5094217;28;20348;-77
2021/09/08 13:55:28;;;;;;;;;;;26.90;98.70;;;;;;5076492;28;19965;-76
2021/09/08 13:57:54;;;;;;;;;;;26.90;98.80;;;;;;5094369;28;20325;-77
2021/09/08 14:00:20;;;;;;;;;;;26.90;98.30;;;;;;5093866;28;19935;-78
2021/09/08 14:02:45;;;;;;;;;;;26.90;99.20;;;;;;5070191;28;19912;-78
2021/09/08 14:05:11;;;;;;;;;;;26.90;99.90;;;;;;5090884;28;20257;-78
2021/09/08 14:07:36;;;;;;;;;;;26.90;99.40;;;;;;5065725;28;19908;-77
2021/09/08 14:10:03;;;;;;;;;;;26.90;98.80;;;;;;5079559;28;19908;-77
2021/09/08 14:12:29;;;;;;;;;;;26.90;98.30;;;;;;5081037;28;19960;-77